PAEN Airport Information

Runway Information
Runway 01L Length 7576 ft width 150 ft
Elevation 89 ft Threshold 0 ft Heading 31
Runway 19R Length 7576 ft Width 150 ft
Elevation 97 ft Threshold 0 ft Heading 211
Runway 01R Length 2000 ft width 60 ft
Elevation 0 ft Threshold 0 ft Heading 31
Runway 19L Length 2000 ft Width 60 ft
Elevation 0 ft Threshold 0 ft Heading 211
Runway 01W Length 4600 ft width 252 ft
Elevation 0 ft Threshold 0 ft Heading 0
Runway 19W Length 4600 ft Width 252 ft
Elevation 0 ft Threshold 0 ft Heading 0
Airport Frequencies
Type ATIS Name ATIS Frequency 120.3 MHZ
Type CNTR Name ANCHORAGE Frequency 125.7 MHZ
Type CTAF Name CTAF Frequency 121.3 MHZ
Type FSS Name RDO Frequency 122.65 MHZ
Type GND Name GND Frequency 121.9 MHZ
Type MISC Name TWEB Frequency 117.6 MHZ
Type TWR Name TWR Frequency 121.3 MHZ
Airport Navaids
Type VOR-DME Name Kenai Frequency 117600 KHZ
Type NDB Name Wildwood Frequency 379 KHZ
Airport Weather Information & NOTAM
ADDS - METARS form results

(1047 UTC 19 September 2018)
Data provider http://aviationweather.gov/metar/data/
 
METAR text: PAEN 191041Z AUTO 00000KT 2SM BR FEW002 OVC035 10/09 A3021 RMK AO2 T01000094 TSNO
Conditions at: PAEN (KENAI , AK, US) observed 1041 UTC 19 September 2018
Temperature: 10.0°C (50°F)
Dewpoint: 9.4°C (49°F) [RH = 96%]
Pressure (altimeter): 30.21 inches Hg (1023.1 mb)
Winds: calm
Visibility: 2.00 miles (3.22 km)
Ceiling: 3500 feet AGL
Clouds: few clouds at 200 feet AGL
overcast cloud deck at 3500 feet AGL
Weather: BR  (mist)

METAR text: PAEN 191009Z AUTO 16003KT 10SM FEW009 BKN036 OVC044 10/09 A3021 RMK AO2 T01000094 TSNO
Conditions at: PAEN (KENAI , AK, US) observed 1009 UTC 19 September 2018
Temperature: 10.0°C (50°F)
Dewpoint: 9.4°C (49°F) [RH = 96%]
Pressure (altimeter): 30.21 inches Hg (1023.1 mb)
Winds: from the SSE (160 degrees) at 3 MPH (3 knots; 1.5 m/s)
Visibility: 10 or more miles (16+ km)
Ceiling: 3600 feet AGL
Clouds: few clouds at 900 feet AGL
broken clouds at 3600 feet AGL
overcast cloud deck at 4400 feet AGL
Weather: automated observation with no human augmentation;
there may or may not be significant weather present at this time

METAR text: PAEN 190953Z AUTO 13005KT 10SM SCT010 OVC044 10/09 A3021 RMK AO2 SLP232 T01000094 TSNO
Conditions at: PAEN (KENAI , AK, US) observed 0953 UTC 19 September 2018
Temperature: 10.0°C (50°F)
Dewpoint: 9.4°C (49°F) [RH = 96%]
Pressure (altimeter): 30.21 inches Hg (1023.1 mb)
[Sea-level pressure: 1023.2 mb]
Winds: from the SE (130 degrees) at 6 MPH (5 knots; 2.6 m/s)
Visibility: 10 or more miles (16+ km)
Ceiling: 4400 feet AGL
Clouds: scattered clouds at 1000 feet AGL
overcast cloud deck at 4400 feet AGL
Weather: automated observation with no human augmentation;
there may or may not be significant weather present at this time

METAR text: PAEN 190951Z AUTO 13006KT 10SM SCT010 OVC044 10/09 A3021 RMK AO2 TSNO
Conditions at: PAEN (KENAI , AK, US) observed 0951 UTC 19 September 2018
Temperature: 10.0°C (50°F)
Dewpoint: 9.0°C (48°F) [RH = 93%]
Pressure (altimeter): 30.21 inches Hg (1023.1 mb)
Winds: from the SE (130 degrees) at 7 MPH (6 knots; 3.1 m/s)
Visibility: 10 or more miles (16+ km)
Ceiling: 4400 feet AGL
Clouds: scattered clouds at 1000 feet AGL
overcast cloud deck at 4400 feet AGL
Weather: automated observation with no human augmentation;
there may or may not be significant weather present at this time

Forecast for: PAEN (KENAI , AK, US)
Text: PAEN 190539Z 1906/2006 VRB03KT P6SM BKN007
Forecast period: 0600 to 1700 UTC 19 September 2018
Forecast type: FROM: standard forecast or significant change
Winds: variable direction winds at 3 MPH (3 knots; 1.5 m/s)
Visibility: 6 or more miles 10+ km)
Ceiling: 700 feet AGL
Clouds: broken clouds at 700 feet AGL
Weather: no significant weather forecast for this period
Text: TEMPO 1906/1910 SCT007 BKN070
Forecast period: 0600 to 1000 UTC 19 September 2018
Forecast type: TEMPORARY: The following changes expected for less than half the time period
Visibility: missing
Ceiling: 7000 feet AGL
Clouds: scattered clouds at 700 feet AGL
broken clouds at 7000 feet AGL
Weather: no significant weather forecast for this period
Text: FM191700 21004KT P6SM SCT020 BKN040
Forecast period: 1700 to 2200 UTC 19 September 2018
Forecast type: FROM: standard forecast or significant change
Winds: from the SSW (210 degrees) at 5 MPH (4 knots; 2.1 m/s)
Visibility: 6 or more miles 10+ km)
Ceiling: 4000 feet AGL
Clouds: scattered clouds at 2000 feet AGL
broken clouds at 4000 feet AGL
Weather: no significant weather forecast for this period
Text: FM192200 25009KT P6SM SCT050
Forecast period: 2200 UTC 19 September 2018 to 0600 UTC 20 September 2018
Forecast type: FROM: standard forecast or significant change
Winds: from the WSW (250 degrees) at 10 MPH (9 knots; 4.6 m/s)
Visibility: 6 or more miles 10+ km)
Ceiling: at least 12,000 feet AGL
Clouds: scattered clouds at 5000 feet AGL
Weather: no significant weather forecast for this period